Murom, Russia
Current Conditions -  °F | °C
As of 9:00 AM on Monday 22 Dec 2014 (Local Time) from UWGG Reporting Station
Overcast Overcast  
Wind Chill: 28°   Ceiling: 1300
Heat Index: 34°   Visibility: 6mi
Dew Point: 30°   Wind: 7mph
Humidity: 87%   Direction: 200°SSW
Pressure: 29.44"   Gusts: NA
Location:  55.57°N, 42.04°E
Report Text: UWGG 220600Z 20003MPS 9999 BKN013 OVC100 01/M01 Q0997 NOSIG18550240 RMK QFE740
Loading
Personal Weather Stations






























Interactive Weather Map New forecast layout! Learn more

10-Day Weather Forecast

Advertisements
Track Severe Weather on mobile